createdAt,value
2018-10-12T00:01:16.821Z,93.43
2018-10-12T00:03:45.664Z,94.03
2018-10-12T00:06:14.186Z,93.46
2018-10-12T00:08:42.745Z,87.98
2018-10-12T00:11:12.050Z,86.90
2018-10-12T00:13:40.573Z,89.91
2018-10-12T00:16:09.217Z,93.98
2018-10-12T00:18:37.784Z,96.63
2018-10-12T00:21:06.384Z,98.57
2018-10-12T00:23:35.605Z,99.67
2018-10-12T00:26:04.099Z,99.70
2018-10-12T00:28:32.805Z,99.62
2018-10-12T00:31:01.788Z,100.00
2018-10-12T00:33:31.363Z,100.00
2018-10-12T00:36:00.103Z,100.00
2018-10-12T00:38:28.737Z,100.00
2018-10-12T00:40:57.461Z,100.00
2018-10-12T00:43:26.002Z,100.00
2018-10-12T00:45:55.611Z,100.00
2018-10-12T00:48:24.138Z,100.00
2018-10-12T00:50:52.678Z,100.00
2018-10-12T00:53:21.260Z,100.00
2018-10-12T00:55:50.300Z,100.00
2018-10-12T00:58:18.858Z,100.00
2018-10-12T01:00:47.618Z,100.00
2018-10-12T01:03:16.270Z,100.00
2018-10-12T01:05:44.779Z,100.00
2018-10-12T01:08:13.487Z,100.00
2018-10-12T01:10:42.176Z,100.00
2018-10-12T01:13:10.937Z,100.00
2018-10-12T01:15:39.483Z,100.00
2018-10-12T01:18:09.085Z,100.00
2018-10-12T01:20:38.101Z,100.00
2018-10-12T01:23:06.963Z,100.00
2018-10-12T01:25:35.768Z,100.00
2018-10-12T01:28:04.520Z,100.00
2018-10-12T01:30:33.045Z,100.00
2018-10-12T01:33:05.935Z,100.00
2018-10-12T01:35:35.050Z,100.00
2018-10-12T01:38:03.683Z,100.00
2018-10-12T01:40:32.899Z,100.00
2018-10-12T01:43:02.121Z,100.00
2018-10-12T01:45:31.173Z,100.00
2018-10-12T01:47:59.734Z,100.00
2018-10-12T01:50:28.353Z,100.00
2018-10-12T01:52:56.870Z,100.00
2018-10-12T01:55:25.617Z,100.00
2018-10-12T01:57:54.131Z,100.00
2018-10-12T02:00:22.779Z,100.00
2018-10-12T02:02:51.346Z,100.00
2018-10-12T02:05:20.501Z,100.00
2018-10-12T02:07:50.033Z,100.00
2018-10-12T02:10:18.599Z,100.00
2018-10-12T02:12:47.103Z,100.00
2018-10-12T02:15:15.949Z,100.00
2018-10-12T02:17:44.524Z,100.00
2018-10-12T02:20:13.353Z,100.00
2018-10-12T02:22:42.359Z,100.00
2018-10-12T02:25:11.567Z,100.00
2018-10-12T02:27:40.069Z,100.00
2018-10-12T02:30:09.135Z,100.00
2018-10-12T02:32:37.945Z,100.00
2018-10-12T02:35:07.653Z,100.00
2018-10-12T02:37:36.333Z,100.00
2018-10-12T02:40:05.026Z,100.00
2018-10-12T02:42:33.582Z,100.00
2018-10-12T02:45:02.209Z,100.00
2018-10-12T02:47:30.755Z,100.00
2018-10-12T02:49:59.279Z,100.00
2018-10-12T02:52:27.927Z,100.00
2018-10-12T02:54:56.523Z,100.00
2018-10-12T02:57:25.118Z,100.00
2018-10-12T02:59:53.891Z,100.00
2018-10-12T03:02:22.488Z,100.00
2018-10-12T03:04:51.124Z,100.00
2018-10-12T03:07:19.766Z,100.00
2018-10-12T03:09:48.537Z,100.00
2018-10-12T03:12:17.245Z,100.00
2018-10-12T03:14:45.876Z,100.00
2018-10-12T03:17:14.379Z,100.00
2018-10-12T03:19:42.842Z,100.00
2018-10-12T03:22:11.805Z,100.00
2018-10-12T03:24:41.616Z,100.00
2018-10-12T03:27:10.445Z,100.00
2018-10-12T03:29:39.331Z,100.00
2018-10-12T03:32:08.022Z,100.00
2018-10-12T03:34:36.713Z,100.00
2018-10-12T03:37:05.418Z,100.00
2018-10-12T03:39:34.207Z,100.00
2018-10-12T03:42:02.738Z,100.00
2018-10-12T03:44:31.385Z,99.97
2018-10-12T03:46:59.937Z,99.06
2018-10-12T03:49:28.701Z,98.50
2018-10-12T03:51:57.368Z,98.25
2018-10-12T03:54:25.992Z,97.32
2018-10-12T03:56:54.707Z,97.52
2018-10-12T03:59:23.793Z,97.13
2018-10-12T04:01:52.453Z,97.09
2018-10-12T04:04:22.966Z,96.95
2018-10-12T04:06:52.654Z,97.07
2018-10-12T04:09:21.318Z,96.95
2018-10-12T04:11:49.912Z,97.85
2018-10-12T04:14:18.655Z,97.96
2018-10-12T04:16:47.246Z,98.01
2018-10-12T04:19:15.747Z,97.58
2018-10-12T04:21:44.362Z,97.72
2018-10-12T04:24:12.963Z,98.14
2018-10-12T04:26:41.536Z,98.00
2018-10-12T04:29:10.226Z,98.58
2018-10-12T04:31:39.821Z,98.37
2018-10-12T04:34:08.441Z,98.81
2018-10-12T04:36:37.904Z,98.72
2018-10-12T04:39:17.597Z,99.12
2018-10-12T04:41:46.239Z,99.33
2018-10-12T04:44:15.832Z,99.06
2018-10-12T04:46:44.859Z,98.46
2018-10-12T04:49:15.242Z,98.32
2018-10-12T04:51:46.747Z,97.86
2018-10-12T04:54:16.633Z,97.42
2018-10-12T04:56:45.821Z,96.62
2018-10-12T04:59:14.369Z,96.40
2018-10-12T05:01:43.141Z,96.50
2018-10-12T05:04:11.761Z,97.09
2018-10-12T05:06:40.510Z,97.19
2018-10-12T05:09:10.477Z,96.36
2018-10-12T05:11:39.272Z,95.15
2018-10-12T05:14:08.020Z,95.78
2018-10-12T05:16:36.987Z,96.36
2018-10-12T05:19:05.841Z,97.94
2018-10-12T05:21:34.542Z,99.13
2018-10-12T05:24:03.321Z,99.48
2018-10-12T05:26:31.985Z,100.00
2018-10-12T05:29:00.652Z,100.00
2018-10-12T05:31:29.261Z,100.00
2018-10-12T05:33:57.849Z,100.00
2018-10-12T05:36:26.519Z,100.00
2018-10-12T05:38:55.144Z,100.00
2018-10-12T05:41:23.777Z,100.00
2018-10-12T05:43:52.410Z,99.66
2018-10-12T05:46:20.909Z,99.30
2018-10-12T05:49:01.555Z,99.40
2018-10-12T05:51:30.161Z,98.60
2018-10-12T05:53:59.205Z,97.77
2018-10-12T05:56:31.087Z,96.88
2018-10-12T05:58:59.931Z,96.52
2018-10-12T06:01:28.899Z,96.40
2018-10-12T06:03:57.412Z,96.79
2018-10-12T06:06:26.071Z,96.68
2018-10-12T06:08:54.931Z,96.50
2018-10-12T06:11:24.586Z,95.68
2018-10-12T06:13:54.270Z,95.92
2018-10-12T06:16:23.114Z,95.83
2018-10-12T06:18:51.941Z,95.67
2018-10-12T06:21:20.441Z,96.10
2018-10-12T06:23:48.978Z,95.61
2018-10-12T06:26:17.458Z,94.96
2018-10-12T06:28:46.056Z,94.54
2018-10-12T06:31:14.597Z,94.53
2018-10-12T06:33:43.196Z,94.06
2018-10-12T06:36:11.723Z,93.95
2018-10-12T06:38:40.319Z,93.60
2018-10-12T06:41:08.988Z,92.68
2018-10-12T06:43:37.598Z,91.57
2018-10-12T06:46:06.737Z,91.46
2018-10-12T06:48:35.385Z,90.33
2018-10-12T06:51:04.081Z,90.60
2018-10-12T06:53:32.694Z,89.83
2018-10-12T06:56:01.225Z,89.64
2018-10-12T06:58:29.896Z,89.22
2018-10-12T07:00:58.457Z,88.57
2018-10-12T07:03:27.059Z,88.44
2018-10-12T07:05:57.810Z,88.11
2018-10-12T07:08:26.327Z,87.69
2018-10-12T07:10:54.830Z,87.57
2018-10-12T07:13:23.401Z,87.51
2018-10-12T07:15:51.987Z,87.65
2018-10-12T07:18:20.758Z,86.85
2018-10-12T07:20:49.389Z,86.54
2018-10-12T07:23:17.992Z,86.41
2018-10-12T07:25:46.781Z,85.80
2018-10-12T07:28:16.298Z,85.35
2018-10-12T07:30:44.958Z,85.30
2018-10-12T07:33:13.529Z,84.65
2018-10-12T07:35:42.176Z,84.87
2018-10-12T07:38:10.693Z,83.97
2018-10-12T07:40:39.306Z,83.07
2018-10-12T07:43:07.893Z,82.08
2018-10-12T07:45:36.570Z,81.88
2018-10-12T07:48:05.263Z,81.54
2018-10-12T07:50:34.004Z,80.75
2018-10-12T07:53:02.498Z,81.53
2018-10-12T07:55:31.041Z,80.83
2018-10-12T07:57:59.619Z,80.42
2018-10-12T08:00:28.455Z,80.14
2018-10-12T08:02:57.011Z,79.45
2018-10-12T08:05:25.640Z,79.59
2018-10-12T08:07:54.193Z,79.32
2018-10-12T08:10:23.793Z,79.12
2018-10-12T08:12:52.386Z,78.79
2018-10-12T08:15:20.941Z,77.29
2018-10-12T08:17:49.632Z,76.54
2018-10-12T08:20:18.639Z,75.88
2018-10-12T08:22:47.213Z,76.21
2018-10-12T08:25:15.808Z,75.78
2018-10-12T08:27:44.606Z,75.68
2018-10-12T08:30:13.307Z,75.71
2018-10-12T08:32:41.952Z,74.95
2018-10-12T08:35:10.796Z,73.90
2018-10-12T08:37:39.469Z,74.40
2018-10-12T08:40:08.046Z,74.72
2018-10-12T08:42:37.080Z,73.78
2018-10-12T08:45:06.845Z,73.15
2018-10-12T08:47:35.338Z,72.25
2018-10-12T08:50:03.881Z,72.23
2018-10-12T08:52:32.637Z,71.60
2018-10-12T08:55:01.299Z,71.19
2018-10-12T08:57:30.184Z,70.50
2018-10-12T08:59:58.939Z,69.60
2018-10-12T09:02:28.561Z,70.00
2018-10-12T09:04:57.238Z,68.61
2018-10-12T09:07:25.926Z,68.62
2018-10-12T09:09:54.574Z,67.30
2018-10-12T09:12:24.110Z,66.92
2018-10-12T09:14:53.357Z,65.89
2018-10-12T09:17:21.897Z,65.84
2018-10-12T09:19:50.549Z,65.51
2018-10-12T09:22:19.101Z,65.89
2018-10-12T09:24:47.776Z,65.91
2018-10-12T09:27:16.478Z,64.78
2018-10-12T09:29:45.026Z,63.61
2018-10-12T09:32:14.004Z,62.63
2018-10-12T09:34:42.493Z,62.99
2018-10-12T09:37:11.037Z,62.31
2018-10-12T09:39:39.650Z,63.07
2018-10-12T09:42:08.321Z,61.75
2018-10-12T09:44:37.023Z,60.61
2018-10-12T09:47:05.536Z,58.82
2018-10-12T09:49:34.139Z,58.91
2018-10-12T09:52:02.812Z,58.67
2018-10-12T09:54:31.402Z,59.47
2018-10-12T09:57:05.117Z,59.52
2018-10-12T09:59:33.773Z,59.25
2018-10-12T10:02:07.875Z,59.09
2018-10-12T10:04:37.129Z,58.18
2018-10-12T10:07:05.873Z,58.08
2018-10-12T10:09:34.605Z,57.66
2018-10-12T10:12:03.270Z,57.42
2018-10-12T10:14:31.981Z,56.93
2018-10-12T10:17:00.625Z,57.16
2018-10-12T10:19:29.126Z,56.21
2018-10-12T10:21:57.782Z,54.60
2018-10-12T10:24:26.415Z,54.08
2018-10-12T10:26:55.242Z,54.19
2018-10-12T10:29:23.871Z,54.14
2018-10-12T10:31:53.863Z,53.13
2018-10-12T10:34:22.058Z,52.79
2018-10-12T10:36:52.842Z,52.33
2018-10-12T10:39:21.403Z,52.14
2018-10-12T10:41:50.043Z,50.92
2018-10-12T10:44:18.728Z,51.56
2018-10-12T10:46:47.269Z,50.50
2018-10-12T10:49:15.930Z,50.18
2018-10-12T10:51:44.497Z,49.08
2018-10-12T10:54:13.662Z,49.13
2018-10-12T10:56:42.216Z,48.28
2018-10-12T10:59:10.771Z,48.80
2018-10-12T11:01:39.803Z,48.85
2018-10-12T11:04:08.665Z,47.80
2018-10-12T11:06:37.358Z,47.60
2018-10-12T11:09:09.104Z,48.11
2018-10-12T11:11:37.651Z,45.79
2018-10-12T11:14:06.199Z,44.33
2018-10-12T11:16:34.963Z,43.09
2018-10-12T11:19:03.715Z,43.27
2018-10-12T11:21:33.080Z,42.22
2018-10-12T11:24:01.698Z,40.24
2018-10-12T11:26:30.428Z,40.00
2018-10-12T11:28:58.944Z,39.57
2018-10-12T11:31:28.609Z,37.21
2018-10-12T11:33:57.351Z,36.04
2018-10-12T11:36:26.550Z,35.60
2018-10-12T11:38:55.189Z,34.44
2018-10-12T11:41:23.868Z,34.35
2018-10-12T11:43:52.438Z,34.90
2018-10-12T11:46:21.200Z,33.12
2018-10-12T11:48:49.734Z,33.00
2018-10-12T11:51:18.489Z,32.96
2018-10-12T11:53:47.091Z,32.82
2018-10-12T11:56:15.800Z,32.43
2018-10-12T11:58:44.338Z,32.55
2018-10-12T12:01:12.851Z,32.55
2018-10-12T12:03:41.429Z,32.14
2018-10-12T12:06:10.260Z,31.40
2018-10-12T12:08:38.811Z,31.73
2018-10-12T12:11:07.707Z,31.28
2018-10-12T12:13:36.343Z,31.22
2018-10-12T12:16:05.019Z,31.14
2018-10-12T12:18:33.587Z,30.47
2018-10-12T12:21:02.368Z,30.14
2018-10-12T12:23:31.110Z,30.19
2018-10-12T12:25:59.646Z,29.80
2018-10-12T12:28:28.264Z,28.84
2018-10-12T12:30:56.953Z,27.92
2018-10-12T12:33:26.890Z,27.83
2018-10-12T12:35:55.812Z,27.80
2018-10-12T12:38:24.017Z,26.81
2018-10-12T12:40:52.790Z,26.49
2018-10-12T12:43:21.284Z,26.22
2018-10-12T12:45:49.777Z,25.88
2018-10-12T12:48:19.890Z,26.84
2018-10-12T12:50:48.109Z,26.73
2018-10-12T12:53:16.697Z,26.77
2018-10-12T12:55:45.393Z,26.57
2018-10-12T12:58:14.045Z,27.25
2018-10-12T13:00:42.624Z,27.21
2018-10-12T13:03:11.206Z,27.34
2018-10-12T13:05:40.074Z,25.40
2018-10-12T13:08:09.735Z,25.28
2018-10-12T13:10:38.261Z,26.26
2018-10-12T13:13:07.147Z,25.00
2018-10-12T13:15:35.907Z,25.47
2018-10-12T13:18:04.624Z,25.60
2018-10-12T13:20:33.239Z,26.06
2018-10-12T13:23:01.953Z,24.95
2018-10-12T13:25:30.614Z,26.20
2018-10-12T13:27:59.163Z,25.31
2018-10-12T13:30:27.732Z,24.99
2018-10-12T13:32:56.234Z,25.95
2018-10-12T13:35:25.932Z,25.89
2018-10-12T13:37:54.527Z,25.22
2018-10-12T13:40:23.078Z,24.47
2018-10-12T13:42:51.633Z,25.34
2018-10-12T13:45:20.367Z,24.60
2018-10-12T13:47:48.917Z,25.04
2018-10-12T13:50:17.510Z,24.46
2018-10-12T13:52:46.202Z,24.04
2018-10-12T13:55:14.744Z,24.93
2018-10-12T13:57:43.440Z,24.47
2018-10-12T14:00:12.178Z,25.25
2018-10-12T14:02:42.153Z,25.08
2018-10-12T14:05:10.764Z,25.85
2018-10-12T14:07:39.327Z,25.24
2018-10-12T14:10:07.907Z,26.28
2018-10-12T14:12:36.513Z,25.30
2018-10-12T14:15:05.911Z,26.56
2018-10-12T14:17:34.606Z,26.92
2018-10-12T14:20:03.324Z,26.44
2018-10-12T14:22:31.804Z,26.93
2018-10-12T14:25:00.430Z,27.52
2018-10-12T14:27:29.094Z,27.91
2018-10-12T14:29:57.778Z,29.01
2018-10-12T14:32:26.513Z,29.05
2018-10-12T14:34:55.193Z,28.52
2018-10-12T14:37:23.789Z,28.79
2018-10-12T14:39:52.456Z,28.73
2018-10-12T14:42:21.046Z,29.46
2018-10-12T14:44:49.720Z,30.08
2018-10-12T14:47:18.287Z,30.55
2018-10-12T14:49:46.920Z,30.95
2018-10-12T14:52:15.491Z,31.65
2018-10-12T14:54:44.042Z,30.25
2018-10-12T14:57:19.326Z,30.53
2018-10-12T14:59:49.073Z,31.08
2018-10-12T15:02:18.351Z,31.69
2018-10-12T15:04:47.007Z,31.53
2018-10-12T15:07:15.695Z,32.72
2018-10-12T15:09:44.388Z,33.30
2018-10-12T15:12:12.955Z,34.00
2018-10-12T15:15:24.390Z,35.05
2018-10-12T15:17:54.168Z,35.52
2018-10-12T15:20:24.259Z,36.72
2018-10-12T15:22:53.613Z,37.45
2018-10-12T15:25:22.210Z,38.44
2018-10-12T15:27:50.805Z,38.82
2018-10-12T15:30:20.215Z,39.07
2018-10-12T15:32:48.785Z,39.92
2018-10-12T15:35:17.340Z,40.23
2018-10-12T15:37:46.166Z,41.85
2018-10-12T15:40:14.904Z,42.46
2018-10-12T15:42:50.206Z,43.56
2018-10-12T15:45:18.885Z,44.00
2018-10-12T15:47:47.585Z,44.27
2018-10-12T15:50:16.286Z,45.72
2018-10-12T15:52:44.852Z,46.62
2018-10-12T15:55:13.491Z,47.99
2018-10-12T15:57:42.113Z,48.48
2018-10-12T16:00:11.819Z,48.85
2018-10-12T16:02:41.401Z,50.08
2018-10-12T16:05:10.054Z,50.44
2018-10-12T16:07:38.739Z,50.95
2018-10-12T16:10:08.500Z,51.43
2018-10-12T16:12:37.276Z,51.73
2018-10-12T16:15:06.054Z,51.80
2018-10-12T16:17:34.618Z,52.29
2018-10-12T16:20:03.306Z,52.59
2018-10-12T16:22:31.917Z,52.84
2018-10-12T16:25:11.950Z,53.21
2018-10-12T16:27:40.620Z,53.92
2018-10-12T16:30:09.227Z,54.16
2018-10-12T16:32:37.801Z,54.17
2018-10-12T16:35:06.547Z,55.00
2018-10-12T16:37:35.297Z,55.16
2018-10-12T16:40:04.023Z,55.24
2018-10-12T16:42:33.566Z,55.76
2018-10-12T16:45:02.177Z,56.38
2018-10-12T16:47:30.795Z,56.48
2018-10-12T16:49:59.374Z,56.72
2018-10-12T16:52:28.079Z,56.77
2018-10-12T16:54:56.596Z,56.61
2018-10-12T16:57:32.166Z,56.91
2018-10-12T17:00:00.694Z,57.70
2018-10-12T17:02:29.274Z,58.22
2018-10-12T17:04:57.929Z,58.16
2018-10-12T17:07:26.491Z,58.46
2018-10-12T17:10:01.702Z,57.94
2018-10-12T17:12:30.314Z,58.72
2018-10-12T17:14:58.974Z,58.90
2018-10-12T17:17:27.487Z,59.42
2018-10-12T17:19:56.002Z,59.66
2018-10-12T17:22:24.597Z,60.14
2018-10-12T17:24:53.414Z,59.85
2018-10-12T17:27:22.099Z,60.29
2018-10-12T17:29:50.707Z,61.11
2018-10-12T17:32:19.336Z,61.53
2018-10-12T17:34:48.493Z,61.98
2018-10-12T17:37:17.114Z,61.96
2018-10-12T17:39:45.617Z,62.30
2018-10-12T17:42:16.699Z,62.39
2018-10-12T17:44:45.500Z,62.80
2018-10-12T17:47:14.938Z,63.50
2018-10-12T17:49:43.732Z,63.37
2018-10-12T17:52:13.323Z,63.50
2018-10-12T17:54:41.921Z,63.79
2018-10-12T17:57:10.666Z,63.62
2018-10-12T17:59:39.225Z,64.18
2018-10-12T18:02:07.969Z,64.47
2018-10-12T18:04:36.525Z,64.94
2018-10-12T18:07:05.518Z,65.30
2018-10-12T18:09:34.159Z,66.07
2018-10-12T18:12:02.941Z,66.35
2018-10-12T18:14:31.584Z,66.37
2018-10-12T18:17:00.520Z,66.19
2018-10-12T18:19:30.329Z,66.62
2018-10-12T18:21:58.929Z,66.92
2018-10-12T18:24:27.633Z,67.36
2018-10-12T18:26:56.294Z,66.66
2018-10-12T18:29:26.190Z,67.46
2018-10-12T18:31:54.938Z,67.03
2018-10-12T18:34:23.621Z,67.34
2018-10-12T18:36:52.199Z,67.84
2018-10-12T18:39:20.779Z,67.68
2018-10-12T18:41:49.524Z,68.12
2018-10-12T18:44:18.110Z,68.10
2018-10-12T18:46:46.933Z,68.35
2018-10-12T18:49:15.503Z,68.29
2018-10-12T18:51:44.124Z,68.42
2018-10-12T18:54:12.766Z,68.64
2018-10-12T18:56:42.374Z,69.12
2018-10-12T18:59:11.175Z,68.71
2018-10-12T19:01:39.811Z,68.97
2018-10-12T19:04:08.537Z,69.50
2018-10-12T19:06:37.241Z,69.01
2018-10-12T19:09:08.148Z,69.20
2018-10-12T19:11:36.750Z,69.18
2018-10-12T19:14:05.497Z,68.48
2018-10-12T19:16:34.423Z,68.59
2018-10-12T19:19:03.315Z,68.98
2018-10-12T19:21:31.939Z,69.16
2018-10-12T19:24:00.664Z,68.86
2018-10-12T19:26:30.223Z,68.96
2018-10-12T19:28:58.758Z,69.22
2018-10-12T19:31:27.656Z,69.68
2018-10-12T19:33:56.142Z,69.56
2018-10-12T19:36:24.756Z,70.10
2018-10-12T19:38:53.318Z,70.02
2018-10-12T19:41:21.863Z,70.26
2018-10-12T19:43:51.431Z,69.28
2018-10-12T19:46:22.053Z,70.13
2018-10-12T19:48:50.644Z,69.90
2018-10-12T19:51:19.507Z,69.89
2018-10-12T19:53:48.162Z,70.11
2018-10-12T19:56:16.862Z,70.51
2018-10-12T19:58:45.460Z,70.55
2018-10-12T20:01:14.008Z,70.83
2018-10-12T20:03:42.601Z,71.06
2018-10-12T20:06:11.191Z,71.33
2018-10-12T20:08:39.763Z,71.39
2018-10-12T20:11:09.182Z,71.24
2018-10-12T20:13:37.740Z,71.25
2018-10-12T20:16:06.614Z,71.61
2018-10-12T20:18:35.715Z,71.48
2018-10-12T20:21:04.464Z,71.71
2018-10-12T20:23:33.097Z,71.92
2018-10-12T20:26:01.765Z,71.78
2018-10-12T20:28:30.679Z,71.93
2018-10-12T20:30:59.572Z,72.22
2018-10-12T20:33:34.676Z,71.99
2018-10-12T20:36:03.375Z,72.54
2018-10-12T20:38:32.106Z,72.64
2018-10-12T20:41:01.774Z,72.51
2018-10-12T20:43:30.470Z,72.32
2018-10-12T20:45:59.077Z,72.30
2018-10-12T20:48:27.706Z,72.63
2018-10-12T20:50:56.476Z,72.93
2018-10-12T20:53:28.746Z,73.09
2018-10-12T20:55:57.401Z,73.24
2018-10-12T20:58:25.952Z,73.36
2018-10-12T21:00:54.508Z,73.10
2018-10-12T21:03:24.411Z,73.33
2018-10-12T21:05:54.989Z,73.64
2018-10-12T21:08:23.590Z,73.06
2018-10-12T21:10:54.143Z,73.44
2018-10-12T21:13:22.761Z,73.57
2018-10-12T21:15:51.244Z,73.63
2018-10-12T21:18:19.812Z,73.29
2018-10-12T21:20:48.330Z,73.40
2018-10-12T21:23:16.949Z,73.49
2018-10-12T21:25:46.610Z,73.64
2018-10-12T21:28:15.209Z,74.17
2018-10-12T21:30:43.842Z,74.08
2018-10-12T21:33:12.639Z,74.11
2018-10-12T21:35:41.529Z,74.41
2018-10-12T21:38:10.157Z,74.80
2018-10-12T21:40:38.767Z,74.97
2018-10-12T21:43:07.420Z,75.03
2018-10-12T21:45:35.966Z,75.59
2018-10-12T21:48:08.667Z,75.83
2018-10-12T21:50:37.352Z,76.42
2018-10-12T21:53:06.229Z,77.17
2018-10-12T21:55:35.006Z,77.21
2018-10-12T21:58:03.765Z,78.10
2018-10-12T22:00:33.074Z,78.33
2018-10-12T22:03:01.858Z,78.62
2018-10-12T22:05:30.684Z,78.87
2018-10-12T22:07:59.239Z,79.31
2018-10-12T22:10:27.860Z,79.40
2018-10-12T22:12:56.501Z,79.62
2018-10-12T22:15:25.235Z,79.26
2018-10-12T22:17:53.767Z,78.98
2018-10-12T22:20:22.625Z,77.76
2018-10-12T22:22:51.518Z,78.77
2018-10-12T22:25:20.186Z,79.89
2018-10-12T22:27:48.990Z,79.76
2018-10-12T22:30:17.796Z,80.86
2018-10-12T22:32:46.484Z,81.30
2018-10-12T22:35:15.130Z,82.56
2018-10-12T22:37:43.718Z,82.47
2018-10-12T22:40:12.290Z,83.63
2018-10-12T22:42:40.962Z,84.49
2018-10-12T22:45:09.554Z,84.07
2018-10-12T22:47:38.281Z,82.93
2018-10-12T22:50:06.929Z,82.85
2018-10-12T22:52:35.522Z,82.49
2018-10-12T22:55:04.337Z,83.46
2018-10-12T22:57:32.971Z,83.83
2018-10-12T23:00:01.746Z,83.51
2018-10-12T23:02:30.359Z,85.01
2018-10-12T23:04:58.950Z,84.72
2018-10-12T23:07:28.220Z,87.11
2018-10-12T23:09:56.776Z,88.91
2018-10-12T23:12:25.956Z,90.40
2018-10-12T23:14:54.627Z,91.46
2018-10-12T23:17:23.286Z,90.71
2018-10-12T23:19:52.998Z,91.08
2018-10-12T23:22:21.659Z,90.19
2018-10-12T23:24:50.370Z,91.86
2018-10-12T23:27:18.994Z,92.55
2018-10-12T23:29:47.518Z,93.46
2018-10-12T23:32:16.186Z,93.98
2018-10-12T23:34:44.854Z,94.03
2018-10-12T23:37:13.495Z,93.36
2018-10-12T23:39:42.089Z,92.13
2018-10-12T23:42:10.686Z,92.14
2018-10-12T23:44:39.431Z,93.25
2018-10-12T23:47:08.222Z,92.86
2018-10-12T23:49:36.809Z,93.52
2018-10-12T23:52:05.364Z,93.53
2018-10-12T23:54:33.900Z,93.55
2018-10-12T23:57:02.600Z,93.52
2018-10-12T23:59:31.301Z,92.68
